createdAt,value
2022-09-27T00:00:12.407Z,1030
2022-09-27T00:01:12.456Z,1029.67
2022-09-27T00:02:12.477Z,1029.63
2022-09-27T00:03:12.479Z,1029.36
2022-09-27T00:04:12.413Z,1029.14
2022-09-27T00:05:12.419Z,1029.03
2022-09-27T00:06:12.445Z,1028.81
2022-09-27T00:07:12.416Z,1028.46
2022-09-27T00:08:12.417Z,1028.35
2022-09-27T00:09:12.435Z,1028.29
2022-09-27T00:10:12.421Z,1028.25
2022-09-27T00:11:12.424Z,1027.94
2022-09-27T00:12:12.426Z,1027.59
2022-09-27T00:13:12.427Z,1027.47
2022-09-27T00:14:12.434Z,1027.21
2022-09-27T00:15:12.434Z,1026.71
2022-09-27T00:16:12.497Z,1026.58
2022-09-27T00:17:12.436Z,1026.34
2022-09-27T00:18:12.434Z,1025.94
2022-09-27T00:19:12.438Z,1025.93
2022-09-27T00:20:12.442Z,1025.67
2022-09-27T00:21:12.448Z,1025.55
2022-09-27T00:22:12.471Z,1025.03
2022-09-27T00:23:12.441Z,1025.3
2022-09-27T00:24:12.450Z,1025.17
2022-09-27T00:25:12.445Z,1024.7
2022-09-27T00:26:12.449Z,1024.29
2022-09-27T00:27:12.449Z,1024.02
2022-09-27T00:28:12.454Z,1023.65
2022-09-27T00:29:12.540Z,1023.67
2022-09-27T00:30:12.456Z,1022.99
2022-09-27T00:31:12.572Z,1022.9
2022-09-27T00:32:12.486Z,1022.51
2022-09-27T00:33:12.462Z,1021.81
2022-09-27T00:34:12.493Z,1021.25
2022-09-27T00:35:12.467Z,1020.86
2022-09-27T00:36:12.469Z,1020.09
2022-09-27T00:37:12.466Z,1019.76
2022-09-27T00:38:12.493Z,1019.51
2022-09-27T00:39:12.472Z,1018.85
2022-09-27T00:40:15.052Z,1018.5
2022-09-27T00:41:12.533Z,1017.59
2022-09-27T00:42:12.479Z,1017.69
2022-09-27T00:43:12.474Z,1017.17
2022-09-27T00:44:12.480Z,1016.72
2022-09-27T00:45:12.483Z,1016.41
2022-09-27T00:46:12.519Z,1016.03
2022-09-27T00:47:12.480Z,1016.26
2022-09-27T00:48:12.509Z,1015.39
2022-09-27T00:49:12.490Z,1015.61
2022-09-27T00:50:12.489Z,1014.7
2022-09-27T00:51:12.496Z,1014.37
2022-09-27T00:52:12.507Z,1014.03
2022-09-27T00:53:12.496Z,1013.9
2022-09-27T00:54:12.625Z,1013.53
2022-09-27T00:55:12.500Z,1013.41
2022-09-27T00:56:15.602Z,1013.27
2022-09-27T00:57:12.500Z,1012.87
2022-09-27T00:58:12.508Z,1012.78
2022-09-27T00:59:12.515Z,1012.52
2022-09-27T01:00:12.509Z,1012.44
2022-09-27T01:01:12.559Z,1012.21
2022-09-27T01:02:12.584Z,1011.92
2022-09-27T01:03:12.513Z,1012.09
2022-09-27T01:04:12.511Z,1012.1
2022-09-27T01:05:12.518Z,1012.33
2022-09-27T01:06:12.515Z,1012.17
2022-09-27T01:07:15.582Z,1012
2022-09-27T01:08:12.516Z,1012.12
2022-09-27T01:09:12.519Z,1011.78
2022-09-27T01:10:12.548Z,1011.42
2022-09-27T01:11:12.525Z,1011.22
2022-09-27T01:12:12.528Z,1011.16
2022-09-27T01:13:12.528Z,1010.78
2022-09-27T01:14:12.534Z,1010.81
2022-09-27T01:15:12.535Z,1010.77
2022-09-27T01:16:12.566Z,1010.7
2022-09-27T01:17:12.534Z,1010.86
2022-09-27T01:18:15.295Z,1010.89
2022-09-27T01:19:12.536Z,1010.59
2022-09-27T01:20:12.544Z,1010.07
2022-09-27T01:21:12.541Z,1009.26
2022-09-27T01:22:12.542Z,1008.74
2022-09-27T01:23:12.541Z,1008.06
2022-09-27T01:24:12.571Z,1007.63
2022-09-27T01:25:12.550Z,1007.69
2022-09-27T01:26:12.570Z,1006.95
2022-09-27T01:27:12.552Z,1006.53
2022-09-27T01:28:12.551Z,1006.03
2022-09-27T01:29:16.269Z,1005.69
2022-09-27T01:30:12.571Z,1005.21
2022-09-27T01:31:12.603Z,1005.12
2022-09-27T01:32:12.560Z,1004.58
2022-09-27T01:33:12.560Z,1004.65
2022-09-27T01:34:12.563Z,1003.89
2022-09-27T01:35:12.563Z,1003.82
2022-09-27T01:36:12.564Z,1003.4
2022-09-27T01:37:12.569Z,1002.83
2022-09-27T01:38:12.575Z,1001.65
2022-09-27T01:39:12.567Z,1000.47
2022-09-27T01:40:15.682Z,999.74
2022-09-27T01:41:12.580Z,999.19
2022-09-27T01:42:13.217Z,998.23
2022-09-27T01:43:12.573Z,997.62
2022-09-27T01:44:12.575Z,997.09
2022-09-27T01:45:12.581Z,997.24
2022-09-27T01:46:12.648Z,996.98
2022-09-27T01:47:12.583Z,996.66
2022-09-27T01:48:12.587Z,996.67
2022-09-27T01:49:12.586Z,996.56
2022-09-27T01:50:12.585Z,996.88
2022-09-27T01:51:12.588Z,996.54
2022-09-27T01:52:12.596Z,996.74
2022-09-27T01:53:12.591Z,996.24
2022-09-27T01:54:12.598Z,996.49
2022-09-27T01:55:12.599Z,996.34
2022-09-27T01:56:12.598Z,996.38
2022-09-27T01:57:12.714Z,996.59
2022-09-27T01:58:12.628Z,996.26
2022-09-27T01:59:12.600Z,996.3
2022-09-27T02:00:12.602Z,995.32
2022-09-27T02:01:12.649Z,995.19
2022-09-27T02:02:12.661Z,995.01
2022-09-27T02:03:12.609Z,994.95
2022-09-27T02:04:12.612Z,994.5
2022-09-27T02:05:12.616Z,993.85
2022-09-27T02:06:13.012Z,993.72
2022-09-27T02:07:12.621Z,993.17
2022-09-27T02:08:12.623Z,992.88
2022-09-27T02:09:12.618Z,992.64
2022-09-27T02:10:12.622Z,992.06
2022-09-27T02:11:12.627Z,991.83
2022-09-27T02:12:12.625Z,991.07
2022-09-27T02:13:12.658Z,990.71
2022-09-27T02:14:12.653Z,990.85
2022-09-27T02:15:12.628Z,990.12
2022-09-27T02:16:12.678Z,990.48
2022-09-27T02:17:12.634Z,989.91
2022-09-27T02:18:12.641Z,989.44
2022-09-27T02:19:12.635Z,988.64
2022-09-27T02:20:12.638Z,988.92
2022-09-27T02:21:12.637Z,988.5
2022-09-27T02:22:12.642Z,988.57
2022-09-27T02:23:12.641Z,988.38
2022-09-27T02:24:12.645Z,988.3
2022-09-27T02:25:12.648Z,988.74
2022-09-27T02:26:12.660Z,988.32
2022-09-27T02:27:12.649Z,988.2
2022-09-27T02:28:12.652Z,988.03
2022-09-27T02:29:12.652Z,988.02
2022-09-27T02:30:12.676Z,987.76
2022-09-27T02:31:12.723Z,986.97
2022-09-27T02:32:12.658Z,986.24
2022-09-27T02:33:12.658Z,985.65
2022-09-27T02:34:12.664Z,985.22
2022-09-27T02:35:12.662Z,985
2022-09-27T02:36:12.663Z,984.59
2022-09-27T02:37:12.664Z,984.32
2022-09-27T02:38:12.665Z,983.91
2022-09-27T02:39:12.668Z,983.35
2022-09-27T02:40:12.734Z,982.67
2022-09-27T02:41:12.710Z,981.81
2022-09-27T02:42:12.674Z,981.54
2022-09-27T02:43:12.676Z,980.98
2022-09-27T02:44:12.681Z,980.1
2022-09-27T02:45:12.683Z,979.47
2022-09-27T02:46:12.830Z,978.9
2022-09-27T02:47:12.681Z,978.54
2022-09-27T02:48:12.974Z,977.22
2022-09-27T02:49:12.686Z,976.93
2022-09-27T02:50:12.701Z,976.29
2022-09-27T02:51:12.690Z,976.08
2022-09-27T02:52:12.690Z,975.49
2022-09-27T02:53:12.690Z,974.79
2022-09-27T02:54:12.693Z,974.74
2022-09-27T02:55:12.700Z,974.51
2022-09-27T02:56:12.696Z,974.18
2022-09-27T02:57:12.705Z,973.39
2022-09-27T02:58:12.701Z,972.56
2022-09-27T02:59:12.704Z,972.3
2022-09-27T03:00:12.701Z,971.79
2022-09-27T03:01:12.727Z,971.94
2022-09-27T03:02:13.869Z,971.9
2022-09-27T03:03:12.770Z,971.72
2022-09-27T03:04:12.709Z,971.4
2022-09-27T03:05:12.712Z,971.08
2022-09-27T03:06:12.713Z,970.86
2022-09-27T03:07:12.718Z,970.37
2022-09-27T03:08:12.715Z,970.54
2022-09-27T03:09:12.796Z,970.34
2022-09-27T03:10:12.719Z,970.79
2022-09-27T03:11:12.722Z,970.56
2022-09-27T03:12:12.720Z,969.55
2022-09-27T03:13:12.723Z,970.2
2022-09-27T03:14:12.724Z,969.91
2022-09-27T03:15:12.724Z,969.81
2022-09-27T03:16:12.731Z,970
2022-09-27T03:17:12.812Z,969.7
2022-09-27T03:18:12.760Z,969.73
2022-09-27T03:19:12.738Z,970.03
2022-09-27T03:20:12.754Z,970
2022-09-27T03:21:12.736Z,970.43
2022-09-27T03:22:12.741Z,970.67
2022-09-27T03:23:15.496Z,970.67
2022-09-27T03:24:12.741Z,970.88
2022-09-27T03:25:12.758Z,970.6
2022-09-27T03:26:13.250Z,970.85
2022-09-27T03:27:12.747Z,970.77
2022-09-27T03:28:12.779Z,970.53
2022-09-27T03:29:12.879Z,970.74
2022-09-27T03:30:12.753Z,970.84
2022-09-27T03:31:12.801Z,970.53
2022-09-27T03:32:12.753Z,970.81
2022-09-27T03:33:12.772Z,971
2022-09-27T03:34:15.617Z,970.75
2022-09-27T03:35:12.760Z,970.56
2022-09-27T03:36:12.761Z,970.64
2022-09-27T03:37:12.764Z,971.23
2022-09-27T03:38:12.774Z,971.16
2022-09-27T03:39:12.835Z,971.14
2022-09-27T03:40:12.816Z,971.62
2022-09-27T03:41:12.770Z,972.06
2022-09-27T03:42:12.770Z,971.91
2022-09-27T03:43:12.777Z,971.59
2022-09-27T03:44:12.931Z,971.55
2022-09-27T03:45:14.162Z,970.96
2022-09-27T03:46:12.839Z,970.69
2022-09-27T03:47:15.843Z,970.53
2022-09-27T03:48:12.787Z,970.72
2022-09-27T03:49:12.798Z,970.79
2022-09-27T03:50:12.811Z,970.28
2022-09-27T03:51:12.798Z,970.58
2022-09-27T03:52:12.786Z,970.41
2022-09-27T03:53:12.791Z,970.26
2022-09-27T03:54:12.791Z,970.09
2022-09-27T03:55:12.892Z,970.37
2022-09-27T03:56:15.591Z,970.48
2022-09-27T03:57:12.825Z,970.25
2022-09-27T03:58:12.807Z,970.05
2022-09-27T03:59:12.797Z,969.85
2022-09-27T04:00:12.816Z,969.81
2022-09-27T04:01:12.858Z,969.88
2022-09-27T04:02:12.852Z,970.41
2022-09-27T04:03:12.808Z,970.22
2022-09-27T04:04:13.311Z,970.92
2022-09-27T04:05:12.826Z,970.95
2022-09-27T04:06:12.841Z,971.18
2022-09-27T04:07:15.582Z,970.77
2022-09-27T04:08:12.815Z,970.26
2022-09-27T04:09:12.820Z,969.78
2022-09-27T04:10:12.836Z,970.16
2022-09-27T04:11:12.818Z,970.56
2022-09-27T04:12:12.821Z,970.81
2022-09-27T04:13:12.823Z,971.2
2022-09-27T04:14:12.823Z,971.19
2022-09-27T04:15:12.839Z,971.76
2022-09-27T04:16:12.828Z,971.68
2022-09-27T04:17:12.919Z,971.44
2022-09-27T04:18:12.833Z,970.78
2022-09-27T04:19:12.893Z,970.57
2022-09-27T04:20:12.865Z,970.53
2022-09-27T04:21:12.845Z,970.14
2022-09-27T04:22:12.874Z,970.07
2022-09-27T04:23:12.841Z,970.26
2022-09-27T04:24:12.841Z,970.06
2022-09-27T04:25:12.860Z,970.17
2022-09-27T04:26:12.844Z,969.91
2022-09-27T04:27:12.865Z,970.11
2022-09-27T04:28:12.848Z,969.15
2022-09-27T04:29:12.845Z,969.4
2022-09-27T04:30:12.895Z,969.49
2022-09-27T04:31:12.914Z,969.19
2022-09-27T04:32:12.851Z,968.94
2022-09-27T04:33:12.853Z,968.26
2022-09-27T04:34:12.870Z,968.13
2022-09-27T04:35:12.876Z,967.63
2022-09-27T04:36:12.859Z,966.9
2022-09-27T04:37:12.864Z,966.59
2022-09-27T04:38:12.886Z,965.84
2022-09-27T04:39:12.862Z,964.64
2022-09-27T04:40:12.971Z,963.69
2022-09-27T04:41:12.869Z,963.35
2022-09-27T04:42:12.867Z,962.87
2022-09-27T04:43:12.872Z,962.63
2022-09-27T04:44:12.873Z,962.78
2022-09-27T04:45:12.891Z,962.88
2022-09-27T04:46:12.929Z,962.66
2022-09-27T04:47:12.884Z,962.21
2022-09-27T04:48:12.877Z,962.55
2022-09-27T04:49:12.884Z,962.4
2022-09-27T04:50:12.931Z,962.25
2022-09-27T04:51:12.884Z,962.13
2022-09-27T04:52:12.885Z,961.94
2022-09-27T04:53:12.893Z,961.79
2022-09-27T04:54:15.951Z,961.97
2022-09-27T04:55:12.912Z,961.78
2022-09-27T04:56:12.899Z,961.8
2022-09-27T04:57:12.901Z,961.78
2022-09-27T04:58:12.893Z,961.9
2022-09-27T04:59:12.893Z,961.67
2022-09-27T05:00:12.917Z,961.89
2022-09-27T05:01:12.934Z,961.86
2022-09-27T05:02:12.947Z,961.25
2022-09-27T05:03:12.905Z,960.8
2022-09-27T05:04:12.902Z,960.88
2022-09-27T05:05:12.920Z,960.56
2022-09-27T05:06:12.912Z,959.74
2022-09-27T05:07:12.910Z,960.04
2022-09-27T05:08:12.914Z,959.66
2022-09-27T05:09:12.956Z,959.33
2022-09-27T05:10:12.960Z,958.65
2022-09-27T05:11:12.917Z,958.33
2022-09-27T05:12:12.916Z,958.77
2022-09-27T05:13:12.922Z,958.47
2022-09-27T05:14:12.925Z,958.38
2022-09-27T05:15:12.945Z,958.7
2022-09-27T05:16:12.996Z,958.38
2022-09-27T05:17:12.966Z,958.29
2022-09-27T05:18:12.929Z,958
2022-09-27T05:19:12.930Z,957.83
2022-09-27T05:20:12.966Z,957.87
2022-09-27T05:21:12.931Z,957.59
2022-09-27T05:22:12.967Z,957.12
2022-09-27T05:23:12.934Z,956.76
2022-09-27T05:24:12.966Z,956.83
2022-09-27T05:25:13.014Z,955.82
2022-09-27T05:26:12.965Z,956.32
2022-09-27T05:27:12.942Z,956.68
2022-09-27T05:28:12.949Z,956.9
2022-09-27T05:29:12.946Z,956.89
2022-09-27T05:30:12.964Z,956.88
2022-09-27T05:31:13.013Z,956.43
2022-09-27T05:32:12.948Z,956.68
2022-09-27T05:33:12.951Z,956.86
2022-09-27T05:34:12.954Z,957.11
2022-09-27T05:35:12.973Z,957.31
2022-09-27T05:36:12.957Z,957.11
2022-09-27T05:37:12.961Z,957.08
2022-09-27T05:38:13.196Z,956.47
2022-09-27T05:39:12.964Z,956.11
2022-09-27T05:40:29.637Z,956.12
2022-09-27T05:41:13.016Z,955.89
2022-09-27T05:42:12.995Z,955.87
2022-09-27T05:43:12.967Z,956.1
2022-09-27T05:44:13.010Z,955.55
2022-09-27T05:45:12.992Z,956.83
2022-09-27T05:46:13.046Z,956.91
2022-09-27T05:47:12.980Z,957.71
2022-09-27T05:48:12.978Z,957.81
2022-09-27T05:49:12.976Z,958.27
2022-09-27T05:50:13.076Z,958.9
2022-09-27T05:51:12.982Z,959.19
2022-09-27T05:52:14.936Z,959.34
2022-09-27T05:53:12.985Z,958.96
2022-09-27T05:54:13.055Z,959.08
2022-09-27T05:55:13.007Z,958.39
2022-09-27T05:56:12.988Z,957.77
2022-09-27T05:57:12.993Z,957.64
2022-09-27T05:58:13.017Z,958.21
2022-09-27T05:59:12.993Z,958.42
2022-09-27T06:00:13.013Z,958.46
2022-09-27T06:01:16.073Z,958.74
2022-09-27T06:02:13.049Z,958.44
2022-09-27T06:03:13.021Z,957.6
2022-09-27T06:04:13.050Z,958.25
2022-09-27T06:05:13.024Z,958.04
2022-09-27T06:06:13.004Z,957.81
2022-09-27T06:07:13.012Z,957.93
2022-09-27T06:08:13.010Z,957.48
2022-09-27T06:09:13.016Z,957.94
2022-09-27T06:10:13.034Z,958.17
2022-09-27T06:11:13.012Z,958.87
2022-09-27T06:12:16.029Z,958.83
2022-09-27T06:13:13.015Z,958.72
2022-09-27T06:14:13.042Z,958.64
2022-09-27T06:15:13.037Z,958.82
2022-09-27T06:16:13.057Z,958.97
2022-09-27T06:17:13.027Z,958.76
2022-09-27T06:18:13.023Z,959.22
2022-09-27T06:19:13.038Z,959.04
2022-09-27T06:20:13.045Z,959.47
2022-09-27T06:21:13.032Z,959.84
2022-09-27T06:22:13.031Z,959.45
2022-09-27T06:23:15.844Z,960.06
2022-09-27T06:24:13.035Z,959.84
2022-09-27T06:25:14.082Z,959.53
2022-09-27T06:26:13.035Z,959.68
2022-09-27T06:27:13.041Z,959.25
2022-09-27T06:28:13.042Z,959.27
2022-09-27T06:29:13.067Z,958.6
2022-09-27T06:30:15.787Z,958.04
2022-09-27T06:31:13.089Z,958.06
2022-09-27T06:32:13.046Z,957.53
2022-09-27T06:33:13.064Z,957.38
2022-09-27T06:34:15.855Z,956.81
2022-09-27T06:35:13.071Z,956.83
2022-09-27T06:36:13.080Z,956.35
2022-09-27T06:37:13.059Z,956.74
2022-09-27T06:38:13.059Z,957.01
2022-09-27T06:39:13.056Z,956.93
2022-09-27T06:40:13.199Z,957.45
2022-09-27T06:41:13.063Z,956.75
2022-09-27T06:42:13.061Z,957.2
2022-09-27T06:43:13.064Z,957.2
2022-09-27T06:44:13.070Z,957.17
2022-09-27T06:45:15.897Z,957.63
2022-09-27T06:46:13.111Z,957.62
2022-09-27T06:47:13.074Z,958.32
2022-09-27T06:48:13.085Z,958.54
2022-09-27T06:49:13.141Z,958.78
2022-09-27T06:50:13.093Z,959.09
2022-09-27T06:51:13.078Z,958.77
2022-09-27T06:52:13.080Z,959.28
2022-09-27T06:53:13.085Z,959.36
2022-09-27T06:54:13.084Z,959.45
2022-09-27T06:55:13.105Z,959.56
2022-09-27T06:56:13.084Z,959.77
2022-09-27T06:57:13.091Z,959.75
2022-09-27T06:58:13.088Z,959.47
2022-09-27T06:59:13.165Z,959.45
2022-09-27T07:00:13.109Z,959.75
2022-09-27T07:01:13.135Z,959.52
2022-09-27T07:02:13.224Z,959.95
2022-09-27T07:03:13.094Z,959.73
2022-09-27T07:04:13.101Z,959.29
2022-09-27T07:05:13.113Z,959.5
2022-09-27T07:06:13.103Z,959.01
2022-09-27T07:07:13.103Z,959.34
2022-09-27T07:08:13.106Z,959.77
2022-09-27T07:09:13.108Z,959.44
2022-09-27T07:10:13.125Z,959.63
2022-09-27T07:11:13.111Z,959.42
2022-09-27T07:12:13.113Z,959.49
2022-09-27T07:13:13.109Z,959.96
2022-09-27T07:14:13.128Z,959.94
2022-09-27T07:15:13.137Z,959.95
2022-09-27T07:16:13.254Z,960.45
2022-09-27T07:17:13.148Z,960.85
2022-09-27T07:18:13.119Z,961.36
2022-09-27T07:19:13.172Z,962.11
2022-09-27T07:20:13.141Z,963.37
2022-09-27T07:21:13.128Z,963.91
2022-09-27T07:22:13.126Z,964.38
2022-09-27T07:23:13.127Z,964.71
2022-09-27T07:24:13.144Z,965.3
2022-09-27T07:25:13.159Z,966.32
2022-09-27T07:26:13.135Z,967.53
2022-09-27T07:27:13.135Z,968.49
2022-09-27T07:28:13.140Z,969.69
2022-09-27T07:29:13.201Z,970.74
2022-09-27T07:30:15.912Z,971.62
2022-09-27T07:31:13.203Z,973.29
2022-09-27T07:32:13.144Z,976.9
2022-09-27T07:33:13.178Z,979.17
2022-09-27T07:34:13.145Z,981.46
2022-09-27T07:35:13.166Z,984.11
2022-09-27T07:36:13.150Z,985.67
2022-09-27T07:37:13.165Z,986.4
2022-09-27T07:38:13.155Z,986.81
2022-09-27T07:39:13.153Z,988.79
2022-09-27T07:40:13.330Z,990.06
2022-09-27T07:41:13.157Z,990.82
2022-09-27T07:42:13.160Z,992.22
2022-09-27T07:43:13.159Z,994
2022-09-27T07:44:13.167Z,996.45
2022-09-27T07:45:13.181Z,997.79
2022-09-27T07:46:13.223Z,999.85
2022-09-27T07:47:13.169Z,1001.53
2022-09-27T07:48:13.174Z,1003.02
2022-09-27T07:49:13.260Z,1003.29
2022-09-27T07:50:13.188Z,1003.7
2022-09-27T07:51:13.171Z,1004.02
2022-09-27T07:52:13.176Z,1004.33
2022-09-27T07:53:13.179Z,1004.58
2022-09-27T07:54:13.180Z,1005.34
2022-09-27T07:55:13.198Z,1005.83
2022-09-27T07:56:13.189Z,1006.69
2022-09-27T07:57:13.181Z,1007.48
2022-09-27T07:58:13.188Z,1009.09
2022-09-27T07:59:13.199Z,1009.49
2022-09-27T08:00:13.211Z,1009.81
2022-09-27T08:01:13.238Z,1009.67
2022-09-27T08:02:13.222Z,1009.69
2022-09-27T08:03:13.195Z,1009.27
2022-09-27T08:04:13.195Z,1009.5
2022-09-27T08:05:13.245Z,1009.56
2022-09-27T08:06:13.200Z,1008.96
2022-09-27T08:07:14.448Z,1008.29
2022-09-27T08:08:13.206Z,1008.13
2022-09-27T08:09:13.272Z,1008.15
2022-09-27T08:10:13.228Z,1008.43
2022-09-27T08:11:13.205Z,1008.61
2022-09-27T08:12:14.243Z,1007.72
2022-09-27T08:13:13.211Z,1007.13
2022-09-27T08:14:13.215Z,1006.37
2022-09-27T08:15:13.232Z,1005.76
2022-09-27T08:16:13.240Z,1005.91
2022-09-27T08:17:13.224Z,1006.21
2022-09-27T08:18:13.222Z,1006.33
2022-09-27T08:19:13.222Z,1006.9
2022-09-27T08:20:13.240Z,1007.06
2022-09-27T08:21:13.253Z,1007.76
2022-09-27T08:22:13.229Z,1008.41
2022-09-27T08:23:13.225Z,1008.94
2022-09-27T08:24:13.226Z,1009.7
2022-09-27T08:25:13.265Z,1009.89
2022-09-27T08:26:13.230Z,1010.31
2022-09-27T08:27:13.249Z,1010.46
2022-09-27T08:28:16.370Z,1011.56
2022-09-27T08:29:13.263Z,1012.09
2022-09-27T08:30:13.264Z,1012.59
2022-09-27T08:31:13.283Z,1013.57
2022-09-27T08:32:13.241Z,1014.64
2022-09-27T08:33:13.255Z,1015.57
2022-09-27T08:34:13.241Z,1015.92
2022-09-27T08:35:13.284Z,1016.27
2022-09-27T08:36:13.256Z,1017.37
2022-09-27T08:37:13.280Z,1017.96
2022-09-27T08:38:13.250Z,1018.61
2022-09-27T08:39:16.423Z,1018.75
2022-09-27T08:40:13.311Z,1018.6
2022-09-27T08:41:13.288Z,1018.28
2022-09-27T08:42:13.272Z,1017.89
2022-09-27T08:43:13.270Z,1017.66
2022-09-27T08:44:13.591Z,1017.42
2022-09-27T08:45:13.280Z,1017.42
2022-09-27T08:46:13.304Z,1016.66
2022-09-27T08:47:13.278Z,1016.17
2022-09-27T08:48:13.271Z,1015.67
2022-09-27T08:49:13.299Z,1015.43
2022-09-27T08:50:16.367Z,1015.17
2022-09-27T08:51:13.277Z,1015.42
2022-09-27T08:52:13.275Z,1014.88
2022-09-27T08:53:13.302Z,1014.88
2022-09-27T08:54:13.299Z,1015.46
2022-09-27T08:55:13.280Z,1016.05
2022-09-27T08:56:13.283Z,1016.93
2022-09-27T08:57:13.283Z,1017.74
2022-09-27T08:58:13.285Z,1019.05
2022-09-27T08:59:13.332Z,1019.83
2022-09-27T09:00:13.289Z,1020.63
2022-09-27T09:01:16.209Z,1021.14
2022-09-27T09:02:13.362Z,1021.6
2022-09-27T09:03:16.037Z,1022.3
2022-09-27T09:04:13.361Z,1022.06
2022-09-27T09:05:13.324Z,1022.16
2022-09-27T09:06:13.301Z,1022.46
2022-09-27T09:07:13.307Z,1022.79
2022-09-27T09:08:13.310Z,1022.76
2022-09-27T09:09:13.335Z,1023.02
2022-09-27T09:10:13.309Z,1023.19
2022-09-27T09:11:13.306Z,1023.56
2022-09-27T09:12:16.149Z,1023.72
2022-09-27T09:13:13.312Z,1024.43
2022-09-27T09:14:13.725Z,1025.78
2022-09-27T09:15:13.314Z,1026.69
2022-09-27T09:16:13.333Z,1027.19
2022-09-27T09:17:13.314Z,1027.67
2022-09-27T09:18:13.332Z,1027.44
2022-09-27T09:19:13.325Z,1027.65
2022-09-27T09:20:16.917Z,1027.69
2022-09-27T09:21:13.325Z,1028.05
2022-09-27T09:22:13.323Z,1028.41
2022-09-27T09:23:13.336Z,1028.54
2022-09-27T09:24:13.432Z,1028.74
2022-09-27T09:25:13.383Z,1028.82
2022-09-27T09:26:13.336Z,1028.82
2022-09-27T09:27:13.355Z,1028.9
2022-09-27T09:28:13.336Z,1029.31
2022-09-27T09:29:16.340Z,1030.03
2022-09-27T09:30:13.339Z,1031.55
2022-09-27T09:31:13.339Z,1034.02
2022-09-27T09:32:13.344Z,1036.11
2022-09-27T09:33:15.980Z,1038.85
2022-09-27T09:34:13.381Z,1041.96
2022-09-27T09:35:13.345Z,1045.44
2022-09-27T09:36:13.349Z,1047.19
2022-09-27T09:37:13.381Z,1047.98
2022-09-27T09:38:13.355Z,1048.54
2022-09-27T09:39:13.358Z,1048.21
2022-09-27T09:40:13.383Z,1047.21
2022-09-27T09:41:13.416Z,1046.54
2022-09-27T09:42:13.376Z,1045.25
2022-09-27T09:43:13.374Z,1044.49
2022-09-27T09:44:13.432Z,1043.67
2022-09-27T09:45:13.365Z,1042.51
2022-09-27T09:46:13.437Z,1041.9
2022-09-27T09:47:13.370Z,1041.22
2022-09-27T09:48:13.375Z,1041.79
2022-09-27T09:49:13.376Z,1041.3
2022-09-27T09:50:13.376Z,1040.8
2022-09-27T09:51:13.395Z,1041.33
2022-09-27T09:52:13.400Z,1041.72
2022-09-27T09:53:13.403Z,1041.1
2022-09-27T09:54:13.490Z,1040.83
2022-09-27T09:55:13.385Z,1040.4
2022-09-27T09:56:13.393Z,1040.75
2022-09-27T09:57:13.419Z,1040.24
2022-09-27T09:58:16.574Z,1040.06
2022-09-27T09:59:13.385Z,1041.01
2022-09-27T10:00:13.392Z,1047.54
2022-09-27T10:01:13.446Z,1048.47
2022-09-27T10:02:13.502Z,1049.47
2022-09-27T10:03:13.394Z,1053.7
2022-09-27T10:04:13.428Z,1054.74
2022-09-27T10:05:13.452Z,1055.04
2022-09-27T10:06:13.402Z,1055.18
2022-09-27T10:07:13.398Z,1055
2022-09-27T10:08:13.403Z,1053.79
2022-09-27T10:09:13.401Z,1052.33
2022-09-27T10:10:13.411Z,1051.75
2022-09-27T10:11:13.406Z,1050.4
2022-09-27T10:12:13.410Z,1049.58
2022-09-27T10:13:13.439Z,1048.71
2022-09-27T10:14:13.492Z,1048.08
2022-09-27T10:15:13.413Z,1047.3
2022-09-27T10:16:13.482Z,1046.8
2022-09-27T10:17:13.421Z,1046.16
2022-09-27T10:18:13.417Z,1046.12
2022-09-27T10:19:13.421Z,1045.71
2022-09-27T10:20:13.423Z,1045.02
2022-09-27T10:21:13.424Z,1043.79
2022-09-27T10:22:13.422Z,1041.99
2022-09-27T10:23:13.429Z,1040.13
2022-09-27T10:24:18.335Z,1038.56
2022-09-27T10:25:13.429Z,1037.65
2022-09-27T10:26:13.434Z,1036.99
2022-09-27T10:27:13.434Z,1037.27
2022-09-27T10:28:13.435Z,1037.88
2022-09-27T10:29:13.465Z,1039.35
2022-09-27T10:30:13.439Z,1040.53
2022-09-27T10:31:13.617Z,1042.07
2022-09-27T10:32:13.447Z,1044.01
2022-09-27T10:33:13.443Z,1045.36
2022-09-27T10:34:13.447Z,1045.97
2022-09-27T10:35:13.449Z,1046.11
2022-09-27T10:36:13.448Z,1046.3
2022-09-27T10:37:13.447Z,1045.68
2022-09-27T10:38:13.452Z,1045.02
2022-09-27T10:39:13.458Z,1043.74
2022-09-27T10:40:13.484Z,1042.74
2022-09-27T10:41:13.471Z,1040.94
2022-09-27T10:42:13.466Z,1039.31
2022-09-27T10:43:13.464Z,1037.69
2022-09-27T10:44:13.502Z,1035.91
2022-09-27T10:45:13.495Z,1034.64
2022-09-27T10:46:13.481Z,1033.46
2022-09-27T10:47:13.465Z,1032.32
2022-09-27T10:48:13.469Z,1031.5
2022-09-27T10:49:13.472Z,1030.5
2022-09-27T10:50:27.123Z,1029.58
2022-09-27T10:51:13.516Z,1028.25
2022-09-27T10:52:13.476Z,1027.7
2022-09-27T10:53:13.476Z,1027.26
2022-09-27T10:54:13.477Z,1026.57
2022-09-27T10:55:16.534Z,1026.05
2022-09-27T10:56:13.510Z,1025.47
2022-09-27T10:57:13.484Z,1024.56
2022-09-27T10:58:13.563Z,1024.16
2022-09-27T10:59:13.487Z,1024.26
2022-09-27T11:00:13.497Z,1026.41
2022-09-27T11:01:13.606Z,1029.2
2022-09-27T11:02:13.494Z,1031.26
2022-09-27T11:03:13.500Z,1033.67
2022-09-27T11:04:13.523Z,1041.83
2022-09-27T11:05:15.153Z,1048.8
2022-09-27T11:06:14.476Z,1054.78
2022-09-27T11:07:13.500Z,1060.36
2022-09-27T11:08:13.501Z,1064.91
2022-09-27T11:09:13.506Z,1069.9
2022-09-27T11:10:13.503Z,1074.91
2022-09-27T11:11:13.513Z,1078.87
2022-09-27T11:12:13.512Z,1082.66
2022-09-27T11:13:13.512Z,1085.27
2022-09-27T11:14:13.515Z,1088.23
2022-09-27T11:15:13.514Z,1091.3
2022-09-27T11:16:13.534Z,1093.73
2022-09-27T11:17:16.715Z,1095.9
2022-09-27T11:18:13.531Z,1098.16
2022-09-27T11:19:15.513Z,1100.39
2022-09-27T11:20:13.524Z,1102.5
2022-09-27T11:21:13.524Z,1103.92
2022-09-27T11:22:13.530Z,1105.14
2022-09-27T11:23:13.529Z,1106.32
2022-09-27T11:24:13.575Z,1106.42
2022-09-27T11:25:13.532Z,1106.36
2022-09-27T11:26:13.535Z,1105.98
2022-09-27T11:27:13.534Z,1105.69
2022-09-27T11:28:16.369Z,1105.26
2022-09-27T11:29:13.540Z,1104.53
2022-09-27T11:30:13.540Z,1103.67
2022-09-27T11:31:16.428Z,1102.42
2022-09-27T11:32:13.540Z,1101.1
2022-09-27T11:33:13.572Z,1099.26
2022-09-27T11:34:13.588Z,1097.21
2022-09-27T11:35:13.567Z,1095.2
2022-09-27T11:36:13.552Z,1093.49
2022-09-27T11:37:13.555Z,1091.21
2022-09-27T11:38:21.094Z,1089.22
2022-09-27T11:39:16.504Z,1086.76
2022-09-27T11:40:13.612Z,1084.25
2022-09-27T11:41:13.559Z,1082.01
2022-09-27T11:42:13.558Z,1080.03
2022-09-27T11:43:13.563Z,1077.56
2022-09-27T11:44:13.569Z,1074.91
2022-09-27T11:45:32.288Z,1073.34
2022-09-27T11:46:42.043Z,1071.43
2022-09-27T11:47:39.092Z,1070.96
2022-09-27T11:48:39.063Z,1070.6
2022-09-27T11:49:39.030Z,1070.86
2022-09-27T11:50:39.031Z,1071.91
2022-09-27T11:51:42.046Z,1073.68
2022-09-27T11:52:39.041Z,1074.34
2022-09-27T11:53:39.067Z,1073.71
2022-09-27T11:54:39.039Z,1075.28
2022-09-27T11:55:39.042Z,1075.74
2022-09-27T11:56:39.070Z,1074.39
2022-09-27T11:57:39.046Z,1073.63
2022-09-27T11:58:39.045Z,1073.11
2022-09-27T11:59:39.094Z,1072.36
2022-09-27T12:00:39.048Z,1071.39
2022-09-27T12:01:39.146Z,1070.32
2022-09-27T12:02:39.124Z,1069.26
2022-09-27T12:03:39.056Z,1067.74
2022-09-27T12:04:39.082Z,1066.44
2022-09-27T12:05:39.057Z,1065.58
2022-09-27T12:06:39.078Z,1065.99
2022-09-27T12:07:39.062Z,1070.28
2022-09-27T12:08:39.070Z,1072.4
2022-09-27T12:09:39.066Z,1074.12
2022-09-27T12:10:39.079Z,1072.59
2022-09-27T12:11:39.086Z,1072.05
2022-09-27T12:12:39.076Z,1074.23
2022-09-27T12:13:39.073Z,1074.76
2022-09-27T12:14:39.072Z,1076.96
2022-09-27T12:15:39.139Z,1081.39
2022-09-27T12:16:39.099Z,1085.39
2022-09-27T12:17:39.110Z,1088.03
2022-09-27T12:18:39.079Z,1086.12
2022-09-27T12:19:39.097Z,1084.43